sensor_id;sensor_type;location;lat;lon;timestamp;pressure;altitude;pressure_sealevel;temperature;humidity
55066;BME280;40964;42.114;24.220;2023-07-16T00:01:57;98020.66;;;25.01;67.73
55066;BME280;40964;42.114;24.220;2023-07-16T00:04:23;98028.72;;;25.01;67.26
55066;BME280;40964;42.114;24.220;2023-07-16T00:06:48;98027.25;;;24.95;67.92
55066;BME280;40964;42.114;24.220;2023-07-16T00:09:14;98029.03;;;24.99;67.51
55066;BME280;40964;42.114;24.220;2023-07-16T00:11:40;98025.47;;;24.90;67.28
55066;BME280;40964;42.114;24.220;2023-07-16T00:14:05;98030.06;;;24.89;67.15
55066;BME280;40964;42.114;24.220;2023-07-16T00:16:31;98024.47;;;24.86;67.71
55066;BME280;40964;42.114;24.220;2023-07-16T00:18:56;98032.56;;;24.86;67.58
55066;BME280;40964;42.114;24.220;2023-07-16T00:21:22;98033.16;;;24.83;68.18
55066;BME280;40964;42.114;24.220;2023-07-16T00:23:47;98034.38;;;24.77;67.61
55066;BME280;40964;42.114;24.220;2023-07-16T00:26:13;98040.53;;;24.77;67.61
55066;BME280;40964;42.114;24.220;2023-07-16T00:28:39;98039.06;;;24.71;67.62
55066;BME280;40964;42.114;24.220;2023-07-16T00:31:04;98032.78;;;24.62;68.08
55066;BME280;40964;42.114;24.220;2023-07-16T00:33:30;98041.78;;;24.57;68.65
55066;BME280;40964;42.114;24.220;2023-07-16T00:35:55;98039.72;;;24.54;68.25
55066;BME280;40964;42.114;24.220;2023-07-16T00:38:21;98039.41;;;24.56;68.39
55066;BME280;40964;42.114;24.220;2023-07-16T00:40:47;98036.22;;;24.54;68.35
55066;BME280;40964;42.114;24.220;2023-07-16T00:43:12;98036.94;;;24.46;68.70
55066;BME280;40964;42.114;24.220;2023-07-16T00:45:39;98032.75;;;24.40;69.62
55066;BME280;40964;42.114;24.220;2023-07-16T00:48:06;98032.56;;;24.36;69.58
55066;BME280;40964;42.114;24.220;2023-07-16T00:50:33;98029.13;;;24.30;69.34
55066;BME280;40964;42.114;24.220;2023-07-16T00:53:03;98031.63;;;24.27;69.84
55066;BME280;40964;42.114;24.220;2023-07-16T00:55:32;98024.94;;;24.24;69.66
55066;BME280;40964;42.114;24.220;2023-07-16T00:58:01;98030.53;;;24.28;69.78
55066;BME280;40964;42.114;24.220;2023-07-16T01:00:39;98033.81;;;24.25;70.54
55066;BME280;40964;42.114;24.220;2023-07-16T01:03:10;98029.13;;;24.30;69.49
55066;BME280;40964;42.114;24.220;2023-07-16T01:08:09;98033.63;;;24.21;70.34
55066;BME280;40964;42.114;24.220;2023-07-16T01:10:37;98036.31;;;24.21;69.96
55066;BME280;40964;42.114;24.220;2023-07-16T01:13:03;98033.94;;;24.20;69.99
55066;BME280;40964;42.114;24.220;2023-07-16T01:15:29;98034.41;;;24.22;70.28
55066;BME280;40964;42.114;24.220;2023-07-16T01:17:55;98030.75;;;24.18;70.45
55066;BME280;40964;42.114;24.220;2023-07-16T01:20:20;98033.44;;;24.18;69.73
55066;BME280;40964;42.114;24.220;2023-07-16T01:28:27;98026.97;;;24.19;69.49
55066;BME280;40964;42.114;24.220;2023-07-16T01:30:55;98032.13;;;24.15;69.24
55066;BME280;40964;42.114;24.220;2023-07-16T01:33:22;98032.13;;;24.15;69.87
55066;BME280;40964;42.114;24.220;2023-07-16T01:35:48;98027.34;;;24.12;69.28
55066;BME280;40964;42.114;24.220;2023-07-16T01:38:15;98024.16;;;24.10;70.67
55066;BME280;40964;42.114;24.220;2023-07-16T01:40:44;98025.34;;;24.04;70.23
55066;BME280;40964;42.114;24.220;2023-07-16T01:43:09;98026.25;;;23.99;71.56
55066;BME280;40964;42.114;24.220;2023-07-16T01:45:35;98037.59;;;23.96;72.01
55066;BME280;40964;42.114;24.220;2023-07-16T01:48:30;98035.88;;;23.87;71.49
55066;BME280;40964;42.114;24.220;2023-07-16T01:50:56;98018.38;;;23.75;72.10
55066;BME280;40964;42.114;24.220;2023-07-16T01:53:22;98030.69;;;23.76;72.77
55066;BME280;40964;42.114;24.220;2023-07-16T01:55:47;98030.28;;;23.69;73.15
55066;BME280;40964;42.114;24.220;2023-07-16T01:58:13;98030.97;;;23.61;73.10
55066;BME280;40964;42.114;24.220;2023-07-16T02:00:39;98033.78;;;23.51;73.70
55066;BME280;40964;42.114;24.220;2023-07-16T02:03:04;98031.34;;;23.55;73.88
55066;BME280;40964;42.114;24.220;2023-07-16T02:05:29;98027.94;;;23.49;73.17
55066;BME280;40964;42.114;24.220;2023-07-16T02:07:55;98034.47;;;23.43;73.22
55066;BME280;40964;42.114;24.220;2023-07-16T02:10:20;98025.84;;;23.46;73.00
55066;BME280;40964;42.114;24.220;2023-07-16T02:12:46;98020.75;;;23.44;73.32
55066;BME280;40964;42.114;24.220;2023-07-16T02:15:11;98029.41;;;23.41;73.82
55066;BME280;40964;42.114;24.220;2023-07-16T02:17:37;98024.09;;;23.36;73.87
55066;BME280;40964;42.114;24.220;2023-07-16T02:20:02;98029.56;;;23.31;74.76
55066;BME280;40964;42.114;24.220;2023-07-16T02:22:31;98023.16;;;23.27;75.07
55066;BME280;40964;42.114;24.220;2023-07-16T02:24:57;98023.47;;;23.26;74.58
55066;BME280;40964;42.114;24.220;2023-07-16T02:27:22;98026.75;;;23.22;74.52
55066;BME280;40964;42.114;24.220;2023-07-16T02:29:48;98035.66;;;23.18;74.47
55066;BME280;40964;42.114;24.220;2023-07-16T02:32:13;98032.97;;;23.18;74.21
55066;BME280;40964;42.114;24.220;2023-07-16T02:34:38;98029.00;;;23.15;74.48
55066;BME280;40964;42.114;24.220;2023-07-16T02:37:04;98035.09;;;23.21;73.93
55066;BME280;40964;42.114;24.220;2023-07-16T02:39:29;98025.38;;;23.25;73.64
55066;BME280;40964;42.114;24.220;2023-07-16T02:41:55;98032.31;;;23.26;74.59
55066;BME280;40964;42.114;24.220;2023-07-16T02:44:20;98031.53;;;23.26;74.24
55066;BME280;40964;42.114;24.220;2023-07-16T02:46:45;98035.53;;;23.28;74.05
55066;BME280;40964;42.114;24.220;2023-07-16T02:49:11;98037.31;;;23.33;74.63
55066;BME280;40964;42.114;24.220;2023-07-16T02:51:37;98043.28;;;23.30;74.14
55066;BME280;40964;42.114;24.220;2023-07-16T02:54:02;98041.75;;;23.23;74.76
55066;BME280;40964;42.114;24.220;2023-07-16T02:56:28;98036.47;;;23.18;75.42
55066;BME280;40964;42.114;24.220;2023-07-16T02:58:53;98039.84;;;23.10;75.95
55066;BME280;40964;42.114;24.220;2023-07-16T03:01:19;98041.47;;;23.06;76.87
55066;BME280;40964;42.114;24.220;2023-07-16T03:03:44;98036.78;;;22.98;77.19
55066;BME280;40964;42.114;24.220;2023-07-16T03:06:10;98031.50;;;22.93;77.77
55066;BME280;40964;42.114;24.220;2023-07-16T03:08:35;98031.88;;;22.81;77.73
55066;BME280;40964;42.114;24.220;2023-07-16T03:11:01;98038.84;;;22.82;78.74
55066;BME280;40964;42.114;24.220;2023-07-16T03:13:26;98037.53;;;22.80;79.05
55066;BME280;40964;42.114;24.220;2023-07-16T03:15:52;98041.91;;;22.76;78.31
55066;BME280;40964;42.114;24.220;2023-07-16T03:18:20;98045.59;;;22.80;77.57
55066;BME280;40964;42.114;24.220;2023-07-16T03:20:45;98049.56;;;22.82;78.21
55066;BME280;40964;42.114;24.220;2023-07-16T03:23:11;98042.28;;;22.88;77.36
55066;BME280;40964;42.114;24.220;2023-07-16T03:25:36;98050.28;;;22.93;77.13
55066;BME280;40964;42.114;24.220;2023-07-16T03:28:02;98045.84;;;23.02;76.28
55066;BME280;40964;42.114;24.220;2023-07-16T03:30:27;98047.44;;;23.03;76.44
55066;BME280;40964;42.114;24.220;2023-07-16T03:32:53;98049.53;;;23.06;76.26
55066;BME280;40964;42.114;24.220;2023-07-16T03:35:18;98052.16;;;23.11;77.18
55066;BME280;40964;42.114;24.220;2023-07-16T03:37:43;98044.09;;;23.11;76.29
55066;BME280;40964;42.114;24.220;2023-07-16T03:40:18;98047.19;;;23.18;76.01
55066;BME280;40964;42.114;24.220;2023-07-16T03:42:44;98053.78;;;23.26;75.51
55066;BME280;40964;42.114;24.220;2023-07-16T03:45:10;98049.34;;;23.35;75.18
55066;BME280;40964;42.114;24.220;2023-07-16T03:47:36;98054.84;;;23.44;75.47
55066;BME280;40964;42.114;24.220;2023-07-16T03:50:02;98043.53;;;23.47;74.96
55066;BME280;40964;42.114;24.220;2023-07-16T03:52:28;98055.13;;;23.61;74.60
55066;BME280;40964;42.114;24.220;2023-07-16T03:54:54;98057.38;;;23.73;74.56
55066;BME280;40964;42.114;24.220;2023-07-16T03:57:19;98062.44;;;23.88;74.09
55066;BME280;40964;42.114;24.220;2023-07-16T03:59:45;98057.19;;;23.97;73.49
55066;BME280;40964;42.114;24.220;2023-07-16T04:02:10;98065.75;;;24.13;73.01
55066;BME280;40964;42.114;24.220;2023-07-16T04:04:36;98058.31;;;24.23;72.43
55066;BME280;40964;42.114;24.220;2023-07-16T04:07:01;98063.19;;;24.35;72.37
55066;BME280;40964;42.114;24.220;2023-07-16T04:09:27;98052.44;;;24.49;70.88
55066;BME280;40964;42.114;24.220;2023-07-16T04:11:52;98056.81;;;24.72;69.62
55066;BME280;40964;42.114;24.220;2023-07-16T04:14:18;98066.13;;;24.88;68.60
55066;BME280;40964;42.114;24.220;2023-07-16T04:16:43;98073.66;;;25.14;68.71
55066;BME280;40964;42.114;24.220;2023-07-16T04:19:09;98075.81;;;25.26;67.68
55066;BME280;40964;42.114;24.220;2023-07-16T04:21:35;98077.03;;;25.42;67.46
55066;BME280;40964;42.114;24.220;2023-07-16T04:24:02;98071.97;;;25.63;65.69
55066;BME280;40964;42.114;24.220;2023-07-16T04:26:27;98073.06;;;25.84;65.45
55066;BME280;40964;42.114;24.220;2023-07-16T04:28:53;98073.78;;;25.98;63.19
55066;BME280;40964;42.114;24.220;2023-07-16T04:31:18;98076.25;;;26.17;62.04
55066;BME280;40964;42.114;24.220;2023-07-16T04:33:44;98076.38;;;26.43;61.36
55066;BME280;40964;42.114;24.220;2023-07-16T04:36:09;98079.25;;;26.64;60.73
55066;BME280;40964;42.114;24.220;2023-07-16T04:38:35;98075.16;;;26.84;60.31
55066;BME280;40964;42.114;24.220;2023-07-16T04:41:00;98082.84;;;27.08;60.01
55066;BME280;40964;42.114;24.220;2023-07-16T04:43:25;98084.56;;;27.04;59.11
55066;BME280;40964;42.114;24.220;2023-07-16T04:45:51;98077.59;;;27.20;58.88
55066;BME280;40964;42.114;24.220;2023-07-16T04:48:16;98079.69;;;27.14;57.92
55066;BME280;40964;42.114;24.220;2023-07-16T04:50:42;98080.94;;;27.26;57.87
55066;BME280;40964;42.114;24.220;2023-07-16T04:53:07;98080.78;;;27.31;57.25
55066;BME280;40964;42.114;24.220;2023-07-16T04:55:37;98087.94;;;27.18;57.53
55066;BME280;40964;42.114;24.220;2023-07-16T04:58:03;98090.16;;;27.33;56.63
55066;BME280;40964;42.114;24.220;2023-07-16T05:00:29;98084.75;;;27.42;56.75
55066;BME280;40964;42.114;24.220;2023-07-16T05:02:56;98091.56;;;27.31;56.35
55066;BME280;40964;42.114;24.220;2023-07-16T05:05:21;98092.06;;;27.50;56.53
55066;BME280;40964;42.114;24.220;2023-07-16T05:07:47;98089.66;;;27.40;55.71
55066;BME280;40964;42.114;24.220;2023-07-16T05:10:12;98092.34;;;27.57;54.65
55066;BME280;40964;42.114;24.220;2023-07-16T05:12:38;98098.06;;;27.56;54.26
55066;BME280;40964;42.114;24.220;2023-07-16T05:15:03;98097.94;;;27.52;54.60
55066;BME280;40964;42.114;24.220;2023-07-16T05:17:29;98102.03;;;27.76;54.13
55066;BME280;40964;42.114;24.220;2023-07-16T05:19:54;98099.66;;;27.83;53.82
55066;BME280;40964;42.114;24.220;2023-07-16T05:22:20;98099.19;;;27.72;54.71
55066;BME280;40964;42.114;24.220;2023-07-16T05:24:45;98110.94;;;27.76;54.57
55066;BME280;40964;42.114;24.220;2023-07-16T05:27:11;98107.91;;;27.95;54.97
55066;BME280;40964;42.114;24.220;2023-07-16T05:29:36;98108.72;;;27.87;53.40
55066;BME280;40964;42.114;24.220;2023-07-16T05:32:02;98113.81;;;27.80;54.18
55066;BME280;40964;42.114;24.220;2023-07-16T05:34:28;98118.25;;;27.76;54.14
55066;BME280;40964;42.114;24.220;2023-07-16T05:36:54;98111.75;;;27.59;54.48
55066;BME280;40964;42.114;24.220;2023-07-16T05:39:21;98112.84;;;27.58;53.54
55066;BME280;40964;42.114;24.220;2023-07-16T05:41:46;98109.06;;;27.68;54.28
55066;BME280;40964;42.114;24.220;2023-07-16T05:44:12;98106.63;;;27.84;54.29
55066;BME280;40964;42.114;24.220;2023-07-16T05:46:37;98109.84;;;27.77;54.02
55066;BME280;40964;42.114;24.220;2023-07-16T05:49:03;98109.66;;;27.91;53.40
55066;BME280;40964;42.114;24.220;2023-07-16T05:51:28;98115.94;;;28.12;52.69
55066;BME280;40964;42.114;24.220;2023-07-16T05:53:53;98122.66;;;28.06;53.78
55066;BME280;40964;42.114;24.220;2023-07-16T05:56:19;98116.53;;;28.26;52.39
55066;BME280;40964;42.114;24.220;2023-07-16T05:58:44;98104.31;;;28.29;54.25
55066;BME280;40964;42.114;24.220;2023-07-16T06:01:10;98123.56;;;28.19;52.77
55066;BME280;40964;42.114;24.220;2023-07-16T06:03:35;98121.50;;;28.24;52.82
55066;BME280;40964;42.114;24.220;2023-07-16T06:06:01;98123.50;;;28.45;53.10
55066;BME280;40964;42.114;24.220;2023-07-16T06:08:26;98123.13;;;28.55;53.00
55066;BME280;40964;42.114;24.220;2023-07-16T06:10:52;98121.75;;;28.78;52.08
55066;BME280;40964;42.114;24.220;2023-07-16T06:13:17;98113.09;;;28.94;52.39
55066;BME280;40964;42.114;24.220;2023-07-16T06:15:43;98119.03;;;29.08;51.56
55066;BME280;40964;42.114;24.220;2023-07-16T06:18:09;98114.09;;;29.31;49.90
55066;BME280;40964;42.114;24.220;2023-07-16T06:20:35;98111.16;;;29.36;49.75
55066;BME280;40964;42.114;24.220;2023-07-16T06:23:00;98106.59;;;29.28;52.26
55066;BME280;40964;42.114;24.220;2023-07-16T06:25:26;98106.34;;;29.42;49.82
55066;BME280;40964;42.114;24.220;2023-07-16T06:27:51;98098.22;;;29.21;50.44
55066;BME280;40964;42.114;24.220;2023-07-16T06:30:17;98096.75;;;29.23;50.02
55066;BME280;40964;42.114;24.220;2023-07-16T06:32:42;98090.09;;;29.00;50.80
55066;BME280;40964;42.114;24.220;2023-07-16T06:35:08;98085.78;;;29.20;50.80
55066;BME280;40964;42.114;24.220;2023-07-16T06:37:34;98085.56;;;29.46;49.59
55066;BME280;40964;42.114;24.220;2023-07-16T06:39:59;98082.84;;;29.66;50.01
55066;BME280;40964;42.114;24.220;2023-07-16T06:42:25;98081.66;;;29.55;51.52
55066;BME280;40964;42.114;24.220;2023-07-16T06:44:50;98084.31;;;29.43;48.97
55066;BME280;40964;42.114;24.220;2023-07-16T06:47:16;98082.41;;;29.44;49.76
55066;BME280;40964;42.114;24.220;2023-07-16T06:49:41;98079.44;;;29.57;51.01
55066;BME280;40964;42.114;24.220;2023-07-16T06:52:06;98085.25;;;29.80;48.61
55066;BME280;40964;42.114;24.220;2023-07-16T06:54:32;98080.22;;;30.03;48.67
55066;BME280;40964;42.114;24.220;2023-07-16T06:56:58;98076.53;;;30.20;50.06
55066;BME280;40964;42.114;24.220;2023-07-16T06:59:23;98074.03;;;30.15;47.79
55066;BME280;40964;42.114;24.220;2023-07-16T07:01:49;98076.97;;;30.10;49.73
55066;BME280;40964;42.114;24.220;2023-07-16T07:04:14;98078.44;;;30.19;47.81
55066;BME280;40964;42.114;24.220;2023-07-16T07:06:40;98074.16;;;30.31;48.00
55066;BME280;40964;42.114;24.220;2023-07-16T07:09:05;98077.16;;;30.05;47.78
55066;BME280;40964;42.114;24.220;2023-07-16T07:11:31;98082.53;;;30.13;47.84
55066;BME280;40964;42.114;24.220;2023-07-16T07:13:57;98083.56;;;30.21;48.10
55066;BME280;40964;42.114;24.220;2023-07-16T07:16:23;98088.50;;;30.19;48.83
55066;BME280;40964;42.114;24.220;2023-07-16T07:18:49;98074.94;;;30.43;46.90
55066;BME280;40964;42.114;24.220;2023-07-16T07:21:14;98090.13;;;30.69;46.32
55066;BME280;40964;42.114;24.220;2023-07-16T07:23:39;98086.94;;;30.18;46.85
55066;BME280;40964;42.114;24.220;2023-07-16T07:26:05;98082.75;;;30.20;46.73
55066;BME280;40964;42.114;24.220;2023-07-16T07:28:31;98082.31;;;30.31;47.11
55066;BME280;40964;42.114;24.220;2023-07-16T07:30:56;98078.88;;;30.09;46.72
55066;BME280;40964;42.114;24.220;2023-07-16T07:33:22;98081.94;;;30.08;45.96
55066;BME280;40964;42.114;24.220;2023-07-16T07:35:47;98080.56;;;30.02;46.31
55066;BME280;40964;42.114;24.220;2023-07-16T07:38:13;98078.69;;;30.14;47.44
55066;BME280;40964;42.114;24.220;2023-07-16T07:40:38;98077.53;;;30.28;46.37
55066;BME280;40964;42.114;24.220;2023-07-16T07:43:04;98086.81;;;30.63;46.23
55066;BME280;40964;42.114;24.220;2023-07-16T07:45:29;98077.19;;;30.90;45.47
55066;BME280;40964;42.114;24.220;2023-07-16T07:47:55;98085.75;;;31.04;45.18
55066;BME280;40964;42.114;24.220;2023-07-16T07:50:20;98083.47;;;31.06;45.66
55066;BME280;40964;42.114;24.220;2023-07-16T07:52:46;98080.25;;;31.01;44.15
55066;BME280;40964;42.114;24.220;2023-07-16T07:55:11;98077.19;;;30.90;44.17
55066;BME280;40964;42.114;24.220;2023-07-16T07:57:37;98073.91;;;30.97;44.64
55066;BME280;40964;42.114;24.220;2023-07-16T08:00:06;98082.44;;;30.71;45.03
55066;BME280;40964;42.114;24.220;2023-07-16T08:02:32;98076.91;;;31.07;44.72
55066;BME280;40964;42.114;24.220;2023-07-16T08:04:57;98077.44;;;31.38;44.02
55066;BME280;40964;42.114;24.220;2023-07-16T08:07:23;98069.72;;;31.40;44.13
55066;BME280;40964;42.114;24.220;2023-07-16T08:09:48;98080.63;;;31.55;44.23
55066;BME280;40964;42.114;24.220;2023-07-16T08:12:14;98083.78;;;31.57;43.05
55066;BME280;40964;42.114;24.220;2023-07-16T08:14:40;98081.47;;;31.44;42.82
55066;BME280;40964;42.114;24.220;2023-07-16T08:17:07;98072.91;;;31.85;45.06
55066;BME280;40964;42.114;24.220;2023-07-16T08:19:32;98082.91;;;32.29;43.55
55066;BME280;40964;42.114;24.220;2023-07-16T08:21:58;98079.78;;;32.27;42.36
55066;BME280;40964;42.114;24.220;2023-07-16T08:24:25;98073.09;;;32.08;43.74
55066;BME280;40964;42.114;24.220;2023-07-16T08:26:50;98071.00;;;32.33;42.44
55066;BME280;40964;42.114;24.220;2023-07-16T08:29:16;98072.75;;;32.76;42.24
55066;BME280;40964;42.114;24.220;2023-07-16T08:31:41;98072.41;;;33.13;40.62
55066;BME280;40964;42.114;24.220;2023-07-16T08:34:07;98064.84;;;33.07;39.89
55066;BME280;40964;42.114;24.220;2023-07-16T08:36:33;98059.72;;;33.21;39.46
55066;BME280;40964;42.114;24.220;2023-07-16T08:38:59;98070.09;;;32.80;41.16
55066;BME280;40964;42.114;24.220;2023-07-16T08:41:25;98063.47;;;32.62;41.63
55066;BME280;40964;42.114;24.220;2023-07-16T08:43:50;98061.44;;;32.74;43.23
55066;BME280;40964;42.114;24.220;2023-07-16T08:46:16;98061.13;;;32.80;41.43
55066;BME280;40964;42.114;24.220;2023-07-16T08:48:42;98067.22;;;32.89;40.67
55066;BME280;40964;42.114;24.220;2023-07-16T08:51:09;98063.63;;;32.69;42.32
55066;BME280;40964;42.114;24.220;2023-07-16T08:53:35;98071.53;;;33.28;43.09
55066;BME280;40964;42.114;24.220;2023-07-16T08:56:00;98068.84;;;33.48;39.64
55066;BME280;40964;42.114;24.220;2023-07-16T08:58:28;98063.53;;;33.55;42.67
55066;BME280;40964;42.114;24.220;2023-07-16T09:00:55;98061.81;;;33.70;39.12
55066;BME280;40964;42.114;24.220;2023-07-16T09:03:21;98065.44;;;33.97;42.25
55066;BME280;40964;42.114;24.220;2023-07-16T09:05:47;98061.97;;;33.77;38.56
55066;BME280;40964;42.114;24.220;2023-07-16T09:08:13;98059.53;;;33.72;40.36
55066;BME280;40964;42.114;24.220;2023-07-16T09:10:42;98063.03;;;33.92;39.59
55066;BME280;40964;42.114;24.220;2023-07-16T09:13:08;98062.28;;;33.72;39.01
55066;BME280;40964;42.114;24.220;2023-07-16T09:15:34;98062.72;;;33.35;40.10
55066;BME280;40964;42.114;24.220;2023-07-16T09:18:00;98064.09;;;33.25;40.12
55066;BME280;40964;42.114;24.220;2023-07-16T09:20:26;98057.59;;;33.72;39.77
55066;BME280;40964;42.114;24.220;2023-07-16T09:22:56;98061.22;;;33.57;38.95
55066;BME280;40964;42.114;24.220;2023-07-16T09:25:29;98059.34;;;33.84;38.74
55066;BME280;40964;42.114;24.220;2023-07-16T09:27:57;98055.97;;;34.36;39.58
55066;BME280;40964;42.114;24.220;2023-07-16T09:30:23;98049.88;;;34.73;40.89
55066;BME280;40964;42.114;24.220;2023-07-16T09:32:48;98044.53;;;34.54;39.32
55066;BME280;40964;42.114;24.220;2023-07-16T09:35:15;98049.47;;;34.71;38.77
55066;BME280;40964;42.114;24.220;2023-07-16T09:37:41;98046.72;;;34.71;37.54
55066;BME280;40964;42.114;24.220;2023-07-16T09:40:08;98043.13;;;34.63;37.58
55066;BME280;40964;42.114;24.220;2023-07-16T09:42:39;98032.97;;;34.90;39.59
55066;BME280;40964;42.114;24.220;2023-07-16T09:45:16;98033.94;;;35.05;37.12
55066;BME280;40964;42.114;24.220;2023-07-16T09:47:42;98033.19;;;34.78;37.82
55066;BME280;40964;42.114;24.220;2023-07-16T09:50:08;98030.78;;;34.47;38.44
55066;BME280;40964;42.114;24.220;2023-07-16T09:52:33;98028.53;;;34.29;40.45
55066;BME280;40964;42.114;24.220;2023-07-16T09:55:02;98026.25;;;34.58;37.65
55066;BME280;40964;42.114;24.220;2023-07-16T09:57:31;98020.56;;;34.70;40.96
55066;BME280;40964;42.114;24.220;2023-07-16T10:00:02;98018.00;;;34.54;38.14
55066;BME280;40964;42.114;24.220;2023-07-16T10:02:33;98017.78;;;34.40;38.77
55066;BME280;40964;42.114;24.220;2023-07-16T10:04:59;98028.81;;;34.47;38.47
55066;BME280;40964;42.114;24.220;2023-07-16T10:07:25;98015.88;;;34.70;38.56
55066;BME280;40964;42.114;24.220;2023-07-16T10:09:56;98015.56;;;34.76;36.97
55066;BME280;40964;42.114;24.220;2023-07-16T10:12:23;98012.03;;;34.75;39.40
55066;BME280;40964;42.114;24.220;2023-07-16T10:14:54;98002.63;;;34.72;37.50
55066;BME280;40964;42.114;24.220;2023-07-16T10:17:24;98015.09;;;34.70;38.65
55066;BME280;40964;42.114;24.220;2023-07-16T10:19:57;98004.63;;;34.46;37.66
55066;BME280;40964;42.114;24.220;2023-07-16T10:25:23;97992.84;;;35.35;38.81
55066;BME280;40964;42.114;24.220;2023-07-16T10:27:51;97986.97;;;35.70;38.90
55066;BME280;40964;42.114;24.220;2023-07-16T10:30:17;97988.06;;;35.66;36.66
55066;BME280;40964;42.114;24.220;2023-07-16T10:32:43;97981.38;;;35.22;37.06
55066;BME280;40964;42.114;24.220;2023-07-16T10:35:09;97976.75;;;35.26;38.74
55066;BME280;40964;42.114;24.220;2023-07-16T10:37:35;97971.88;;;35.46;36.48
55066;BME280;40964;42.114;24.220;2023-07-16T10:40:05;97970.44;;;35.60;36.19
55066;BME280;40964;42.114;24.220;2023-07-16T10:42:31;97976.41;;;35.69;39.18
55066;BME280;40964;42.114;24.220;2023-07-16T10:45:02;97970.31;;;35.49;35.95
55066;BME280;40964;42.114;24.220;2023-07-16T10:47:32;97966.94;;;35.63;39.59
55066;BME280;40964;42.114;24.220;2023-07-16T10:49:59;97961.53;;;35.70;37.27
55066;BME280;40964;42.114;24.220;2023-07-16T10:52:26;97955.47;;;35.91;36.89
55066;BME280;40964;42.114;24.220;2023-07-16T10:54:52;97965.00;;;35.67;36.91
55066;BME280;40964;42.114;24.220;2023-07-16T10:57:23;97959.16;;;35.27;36.89
55066;BME280;40964;42.114;24.220;2023-07-16T10:59:51;97966.38;;;35.43;38.19
55066;BME280;40964;42.114;24.220;2023-07-16T11:02:17;97959.19;;;35.68;38.17
55066;BME280;40964;42.114;24.220;2023-07-16T11:04:45;97956.88;;;35.74;36.44
55066;BME280;40964;42.114;24.220;2023-07-16T11:07:13;97958.69;;;36.03;38.13
55066;BME280;40964;42.114;24.220;2023-07-16T11:09:50;97949.50;;;36.33;36.19
55066;BME280;40964;42.114;24.220;2023-07-16T11:12:23;97951.50;;;36.39;37.77
55066;BME280;40964;42.114;24.220;2023-07-16T11:14:51;97953.53;;;36.50;35.14
55066;BME280;40964;42.114;24.220;2023-07-16T11:17:17;97949.88;;;36.35;35.53
55066;BME280;40964;42.114;24.220;2023-07-16T11:19:47;97940.38;;;36.15;36.24
55066;BME280;40964;42.114;24.220;2023-07-16T11:22:14;97929.78;;;36.09;35.89
55066;BME280;40964;42.114;24.220;2023-07-16T11:24:50;97933.78;;;36.26;36.45
55066;BME280;40964;42.114;24.220;2023-07-16T11:27:20;97940.53;;;36.36;37.36
55066;BME280;40964;42.114;24.220;2023-07-16T11:29:51;97934.88;;;36.11;37.00
55066;BME280;40964;42.114;24.220;2023-07-16T11:32:30;97927.72;;;35.92;36.99
55066;BME280;40964;42.114;24.220;2023-07-16T11:34:57;97932.06;;;35.97;35.85
55066;BME280;40964;42.114;24.220;2023-07-16T11:37:31;97929.72;;;35.99;37.50
55066;BME280;40964;42.114;24.220;2023-07-16T11:40:01;97911.34;;;36.03;35.90
55066;BME280;40964;42.114;24.220;2023-07-16T11:42:38;97918.00;;;36.02;36.18
55066;BME280;40964;42.114;24.220;2023-07-16T11:45:14;97919.66;;;36.14;37.31
55066;BME280;40964;42.114;24.220;2023-07-16T11:47:39;97916.72;;;36.51;36.96
55066;BME280;40964;42.114;24.220;2023-07-16T11:50:05;97918.34;;;36.66;35.82
55066;BME280;40964;42.114;24.220;2023-07-16T11:52:31;97923.94;;;36.87;35.67
55066;BME280;40964;42.114;24.220;2023-07-16T11:54:58;97914.97;;;37.15;35.04
55066;BME280;40964;42.114;24.220;2023-07-16T11:57:29;97916.91;;;37.11;36.40
55066;BME280;40964;42.114;24.220;2023-07-16T11:59:54;97916.56;;;37.13;34.45
55066;BME280;40964;42.114;24.220;2023-07-16T12:02:20;97920.44;;;37.08;36.16
55066;BME280;40964;42.114;24.220;2023-07-16T12:04:47;97909.09;;;37.20;35.73
55066;BME280;40964;42.114;24.220;2023-07-16T12:07:12;97905.94;;;37.11;34.52
55066;BME280;40964;42.114;24.220;2023-07-16T12:09:38;97905.88;;;36.76;35.76
55066;BME280;40964;42.114;24.220;2023-07-16T12:12:03;97903.13;;;36.76;36.53
55066;BME280;40964;42.114;24.220;2023-07-16T12:14:30;97915.16;;;36.57;36.54
55066;BME280;40964;42.114;24.220;2023-07-16T12:16:55;97914.03;;;36.61;35.07
55066;BME280;40964;42.114;24.220;2023-07-16T12:19:21;97916.81;;;36.76;35.90
55066;BME280;40964;42.114;24.220;2023-07-16T12:21:47;97910.91;;;36.63;35.59
55066;BME280;40964;42.114;24.220;2023-07-16T12:24:13;97907.03;;;36.78;34.67
55066;BME280;40964;42.114;24.220;2023-07-16T12:26:38;97913.38;;;36.97;34.94
55066;BME280;40964;42.114;24.220;2023-07-16T12:29:04;97911.78;;;36.92;36.24
55066;BME280;40964;42.114;24.220;2023-07-16T12:31:33;97910.22;;;36.91;35.81
55066;BME280;40964;42.114;24.220;2023-07-16T12:33:59;97902.34;;;36.79;35.00
55066;BME280;40964;42.114;24.220;2023-07-16T12:36:27;97903.13;;;36.76;35.08
55066;BME280;40964;42.114;24.220;2023-07-16T12:38:53;97902.72;;;36.77;36.89
55066;BME280;40964;42.114;24.220;2023-07-16T12:41:18;97895.97;;;36.57;35.11
55066;BME280;40964;42.114;24.220;2023-07-16T12:43:44;97894.81;;;36.54;35.49
55066;BME280;40964;42.114;24.220;2023-07-16T12:46:10;97893.31;;;36.67;34.47
55066;BME280;40964;42.114;24.220;2023-07-16T12:48:35;97888.91;;;36.42;34.63
55066;BME280;40964;42.114;24.220;2023-07-16T12:51:01;97884.25;;;36.49;35.93
55066;BME280;40964;42.114;24.220;2023-07-16T12:53:26;97891.81;;;36.91;34.00
55066;BME280;40964;42.114;24.220;2023-07-16T12:55:52;97892.66;;;37.13;34.44
55066;BME280;40964;42.114;24.220;2023-07-16T12:58:18;97882.50;;;37.32;35.60